Date,TemperatureHighF,TemperatureAvgF,TemperatureLowF,DewpointHighF,DewpointAvgF,DewpointLowF,HumidityHigh,HumidityAvg,HumidityLow,PressureMaxIn,PressureMinIn,WindSpeedMaxMPH,WindSpeedAvgMPH,GustSpeedMaxMPH,PrecipitationSumIn
2014-1-1,81.6,75.6,71.6,74.2,70.3,-99.9,96,86,72,30.05,29.96,11,-8,16,0.26
2014-1-2,83.8,77.0,72.4,75.2,72.6,70.0,96,86,70,30.00,29.90,19,2,19,0.48
2014-1-3,83.7,75.2,68.8,74.0,72.1,68.0,96,91,70,30.00,29.91,11,1,13,0.23
2014-1-4,83.2,76.6,71.1,75.1,72.3,69.9,97,87,69,30.04,29.93,17,2,17,0.23
2014-1-5,85.5,79.3,73.7,73.3,70.6,65.9,93,76,53,30.06,29.93,15,3,17,0.00
2014-1-6,84.4,77.6,71.9,74.0,72.0,68.0,92,83,67,30.02,29.92,13,2,17,0.02
2014-1-7,83.7,78.2,74.2,75.0,72.5,70.7,93,83,68,30.04,29.94,18,5,18,0.02
2014-1-8,84.3,79.4,72.0,73.6,71.4,69.0,94,77,64,30.07,29.97,16,6,16,0.15
2014-1-9,83.0,74.3,70.8,73.7,71.0,69.1,97,90,64,30.11,29.98,16,2,17,0.06
2014-1-10,82.0,75.5,69.0,74.0,70.0,65.8,95,83,70,30.07,29.97,17,3,17,0.08
2014-1-11,82.9,74.8,67.9,73.0,69.7,66.0,96,84,65,30.09,29.98,12,2,15,0.25
2014-1-12,84.1,76.1,70.7,74.0,70.4,68.0,96,84,60,30.11,29.99,10,2,14,0.06
2014-1-13,83.5,74.8,69.5,74.0,69.8,68.0,96,85,60,30.08,29.99,10,2,15,0.15
2014-1-14,81.2,70.4,65.5,72.0,67.4,63.0,93,90,67,30.08,29.98,10,1,14,0.02
2014-1-15,83.3,74.8,67.6,68.5,64.8,-99.9,89,72,51,30.06,29.94,15,2,15,0.00
2014-1-16,82.9,74.0,66.4,71.0,68.0,64.0,93,82,63,30.01,29.90,8,1,12,0.00
2014-1-17,83.3,73.5,66.8,72.0,68.6,65.0,95,85,66,30.04,29.93,9,2,12,0.19
2014-1-18,89.9,77.4,66.2,73.5,69.1,64.7,97,78,54,30.07,29.95,13,2,13,0.02
2014-1-19,89.0,77.4,68.9,75.0,70.5,67.0,95,81,57,30.07,29.96,8,1,10,0.00
2014-1-20,85.2,74.8,69.2,73.0,69.7,68.0,95,85,62,30.04,29.93,10,1,12,0.00
2014-1-21,84.2,75.5,68.2,72.0,68.2,64.0,94,79,52,30.01,29.88,10,2,13,0.00
2014-1-22,90.8,77.0,67.6,73.0,69.3,66.0,94,79,54,30.02,29.89,5,1,10,0.00
2014-1-23,85.0,76.6,69.9,74.0,71.2,68.0,94,84,66,30.06,29.97,10,2,14,0.00
2014-1-24,83.8,76.7,71.8,74.0,72.2,70.0,97,86,64,30.05,29.94,10,2,16,0.24
2014-1-25,83.3,75.7,67.8,74.0,69.9,66.0,93,82,67,30.01,29.90,12,2,15,0.00
2014-1-26,85.4,72.2,67.6,73.7,67.9,59.0,96,87,42,30.03,29.92,15,1,17,0.01
2014-1-27,88.0,76.6,69.0,73.0,69.8,67.0,93,80,58,30.01,29.91,8,2,16,0.05
2014-1-28,85.2,77.4,70.3,74.0,69.9,67.0,94,79,57,30.06,29.95,11,2,18,0.02
2014-1-29,84.1,77.5,69.2,74.0,69.0,66.0,88,76,57,30.07,29.95,13,3,16,0.00
2014-1-30,81.8,75.0,71.1,74.0,70.5,68.0,94,86,68,30.07,29.98,11,2,16,0.71
2014-1-31,82.6,76.5,70.1,73.0,70.4,68.0,95,82,69,30.04,29.96,20,7,20,0.24
2014-2-1,83.2,74.4,70.3,74.0,71.2,69.0,97,90,68,30.01,29.92,10,2,15,0.86
2014-2-2,82.2,73.7,68.0,75.0,70.8,67.4,99,91,74,30.01,29.90,16,3,16,0.19
2014-2-3,83.4,76.3,70.0,74.4,71.2,68.0,95,85,68,30.00,29.91,15,5,15,0.16
2014-2-4,82.0,77.3,69.9,73.1,70.9,68.3,97,81,66,30.03,29.93,15,6,15,0.28
2014-2-5,82.2,77.1,69.3,73.3,71.1,67.8,97,82,69,30.01,29.90,14,5,14,0.33
2014-2-6,83.9,75.5,69.1,75.1,71.6,68.0,98,88,69,30.02,29.92,15,4,15,0.41
2014-2-7,84.5,76.0,70.1,76.0,71.8,69.0,98,87,64,30.05,29.95,9,2,14,0.34
2014-2-8,83.0,76.1,70.9,75.0,71.3,69.0,96,85,66,30.04,29.94,10,2,15,0.21
2014-2-9,84.6,76.2,68.5,75.0,70.8,67.0,95,84,69,30.00,29.88,8,2,12,0.00
2014-2-10,86.0,80.4,68.6,75.0,70.8,67.0,94,73,55,29.99,29.88,17,5,17,0.56
2014-2-11,85.5,75.9,68.2,74.0,68.9,66.0,93,80,55,29.99,29.91,12,2,17,0.00
2014-2-12,84.0,76.4,69.2,73.0,69.5,67.0,92,80,65,30.01,29.89,11,2,15,0.00
2014-2-13,88.3,78.9,69.9,72.0,70.4,68.0,94,77,56,29.97,29.87,5,1,13,0.00
2014-2-14,91.3,82.3,69.9,73.0,71.4,68.0,94,71,52,30.03,29.90,6,2,12,0.00
2014-2-15,87.4,78.0,70.9,72.0,68.6,65.0,94,75,48,30.07,29.96,8,2,12,0.00
2014-2-16,84.3,75.5,68.1,73.0,68.3,66.0,93,79,55,30.04,29.93,12,2,15,0.00
2014-2-17,84.7,75.8,68.0,74.0,68.2,65.0,95,79,52,30.02,29.93,11,2,13,0.02
2014-2-18,82.0,75.1,71.0,75.0,71.2,69.0,95,88,74,30.04,29.92,10,2,17,0.67
2014-2-19,85.0,77.6,72.2,73.0,69.6,61.0,96,78,45,30.02,29.91,11,3,16,0.17
2014-2-20,83.3,74.5,71.0,73.0,69.8,68.0,91,85,64,30.04,29.96,10,1,15,0.05
2014-2-21,80.9,73.6,70.9,74.0,70.5,69.0,95,90,72,30.03,29.94,17,2,17,0.85
2014-2-22,83.0,74.8,68.4,75.0,70.3,67.0,97,86,62,30.03,29.93,10,2,14,0.27
2014-2-23,83.8,76.0,69.0,73.0,69.8,66.0,94,82,55,30.04,29.94,11,2,16,0.10
2014-2-24,84.2,76.2,67.3,72.8,69.0,65.5,96,79,57,30.01,29.90,15,4,15,0.04
2014-2-25,85.0,77.9,68.3,72.0,68.0,65.0,94,73,54,30.00,29.85,14,4,14,0.01
2014-2-26,85.4,75.3,66.3,70.7,67.5,62.0,90,78,59,29.97,29.83,16,2,16,0.00
2014-2-27,89.7,74.1,67.9,73.0,67.9,65.8,94,83,52,29.97,29.86,8,1,14,0.00
2014-2-28,86.8,76.9,70.4,72.0,69.1,66.0,93,78,56,30.00,29.89,10,2,11,0.00
2014-3-1,85.4,75.6,69.7,73.0,69.7,67.0,91,82,58,30.01,29.87,7,1,11,0.07
2014-3-2,85.1,76.6,67.6,73.1,69.5,65.8,96,80,59,29.97,29.86,12,3,12,8.06
2014-3-3,81.6,74.3,70.3,73.0,69.7,67.0,96,86,65,29.99,29.88,15,3,15,0.26
2014-3-4,82.0,69.5,67.5,72.0,66.5,65.0,94,91,60,30.01,29.91,11,0,12,0.40
2014-3-5,82.7,74.6,68.4,73.0,69.7,67.0,95,85,61,30.05,29.94,7,1,13,0.11
2014-3-6,83.6,73.4,69.0,72.0,67.9,65.0,94,83,62,30.06,29.96,5,1,14,0.01
2014-3-7,84.2,75.7,68.3,71.0,68.2,64.0,90,78,60,30.01,29.89,9,2,12,0.00
2014-3-8,86.2,75.9,68.9,73.3,69.2,66.0,93,80,59,30.00,29.91,9,2,9,0.02
2014-3-9,85.8,78.7,72.3,73.0,70.5,67.0,89,76,58,30.00,29.90,7,2,12,0.00
2014-3-10,84.9,74.3,69.7,73.2,69.5,67.6,94,85,61,29.98,29.88,7,0,10,0.02
2014-3-11,81.9,75.1,69.6,73.0,70.4,68.0,95,85,66,29.95,29.86,6,1,8,0.00
2014-3-12,85.1,77.5,69.4,72.0,69.3,66.0,90,77,61,29.94,29.84,10,2,14,0.00
2014-3-13,87.1,77.7,68.9,72.0,69.2,66.0,91,76,55,29.97,29.87,6,1,12,0.00
2014-3-14,84.7,76.6,67.3,73.0,69.5,65.0,93,79,64,29.99,29.89,10,2,13,0.00
2014-3-15,85.2,78.4,69.1,72.0,70.0,67.0,94,76,59,29.95,29.85,12,3,14,0.00
2014-3-16,83.5,74.1,69.6,72.7,68.6,66.3,91,83,66,29.95,29.86,7,1,12,0.00
2014-3-17,86.8,79.3,70.8,72.0,69.2,67.0,90,72,56,29.96,29.85,9,2,14,0.00
2014-3-18,86.6,77.7,68.5,72.0,69.1,66.0,91,75,56,30.00,29.89,11,2,16,0.00
2014-3-19,87.8,76.7,69.0,73.0,69.6,67.0,93,80,52,29.99,29.91,7,1,12,0.02
2014-3-20,90.4,77.8,67.5,73.0,68.0,65.0,92,74,51,29.98,29.87,9,1,12,0.01
2014-3-21,91.9,79.4,66.7,72.0,68.2,64.0,92,71,48,29.98,29.90,8,2,16,0.00
2014-3-22,93.6,84.9,72.5,72.0,69.7,68.0,88,62,45,30.04,29.95,6,1,11,0.00
2014-3-23,92.7,80.6,69.7,73.0,68.9,67.0,90,70,43,30.03,29.91,8,1,13,0.00
2014-3-24,88.6,80.2,71.5,74.0,70.8,67.0,89,74,54,29.98,29.85,9,1,12,0.00
2014-3-25,93.1,80.4,70.3,72.0,69.0,66.0,92,70,42,29.99,29.88,7,1,15,0.00
2014-3-26,75.0,74.6,74.0,68.0,68.0,68.0,80,80,79,29.98,29.95,1,0,2,0.00
2014-3-29,82.8,78.2,73.2,74.0,71.0,70.0,91,79,69,30.01,29.93,9,3,14,0.10
2014-3-30,89.0,78.0,67.8,74.0,69.7,66.0,96,77,53,29.97,29.86,11,2,13,0.09
2014-3-31,90.6,79.1,69.2,72.0,69.5,67.0,91,74,48,29.98,29.88,10,1,13,0.00
2014-4-1,89.2,78.1,69.4,74.0,69.3,66.0,90,75,54,30.00,29.89,8,2,13,0.00
2014-4-2,85.6,77.9,69.6,73.0,70.1,67.0,92,78,60,30.00,29.92,8,2,13,0.00
2014-4-3,84.7,77.2,71.1,74.0,70.9,68.0,91,81,64,29.98,29.90,10,3,17,0.07
2014-4-4,81.3,75.7,72.0,73.0,71.4,70.0,96,87,68,29.99,29.90,11,3,17,0.42
2014-4-5,84.1,78.5,72.3,72.0,71.0,70.0,95,78,65,30.02,29.93,13,4,18,0.08
2014-4-19,76.8,76.8,76.7,71.6,71.6,71.4,84,84,84,30.01,30.01,1,0,1,0.00
2014-4-20,87.0,80.6,72.4,74.0,71.4,68.0,92,74,59,30.03,29.94,16,3,16,0.09
2014-4-21,94.3,80.7,69.0,72.0,69.5,66.0,92,71,44,29.98,29.84,9,1,15,0.00
2014-4-22,93.3,82.5,73.1,74.0,71.7,70.0,89,71,47,29.91,29.79,7,2,14,0.00
2014-4-23,96.3,83.0,77.2,74.0,71.6,69.0,86,70,41,29.94,29.83,7,1,12,0.00
2014-4-24,95.5,84.0,73.8,75.0,71.6,68.0,87,68,42,29.97,29.87,19,2,19,0.00
2014-4-25,90.4,81.2,72.9,75.0,72.6,69.0,89,76,54,29.98,29.86,11,2,13,0.00
2014-4-26,94.9,81.6,71.0,75.0,71.9,68.0,91,74,46,29.96,29.87,10,1,12,0.00
2014-4-27,97.2,82.6,71.8,72.2,70.0,67.9,88,69,41,29.98,29.88,9,1,13,0.00
2014-4-28,92.5,81.4,72.9,73.0,70.2,67.8,85,70,50,29.97,29.86,6,1,13,0.00
2014-4-29,86.8,76.6,70.9,74.0,69.8,67.0,88,80,56,29.98,29.88,13,1,13,0.00
2014-4-30,86.8,79.9,73.1,74.0,71.5,69.0,89,76,61,29.98,29.89,16,3,16,0.00
2014-5-1,88.0,80.5,72.6,75.0,72.2,69.0,88,76,56,29.96,29.86,14,3,18,0.00
2014-5-2,93.6,81.8,72.4,74.0,71.5,67.0,90,72,43,29.99,29.89,9,2,13,0.00
2014-5-3,91.5,81.0,74.0,76.0,72.5,70.0,89,76,55,30.04,29.95,9,1,11,0.00
2014-5-4,88.9,81.3,73.8,76.0,71.6,69.0,93,74,53,30.02,29.88,10,2,14,0.13
2014-5-5,90.6,80.5,73.4,74.0,71.3,68.0,91,75,51,29.95,29.82,6,1,12,0.00
2014-5-6,92.5,81.8,74.5,75.0,72.6,70.0,91,75,52,29.92,29.84,9,1,12,0.17
2014-5-7,94.8,80.3,72.3,73.0,71.1,69.0,91,75,43,30.00,29.87,7,1,9,0.11
2014-5-8,83.4,74.1,70.6,75.0,71.2,69.0,98,91,65,30.00,29.90,8,1,10,3.61
2014-5-9,82.9,76.1,71.2,73.0,70.9,68.1,98,84,68,29.99,29.90,14,2,21,11.67
2014-5-10,74.5,71.4,67.9,72.0,69.9,67.0,98,95,88,30.02,29.85,7,1,13,3.86
2014-5-11,84.0,74.9,67.7,75.0,70.6,67.0,97,87,67,29.97,29.84,6,0,13,0.18
2014-5-12,86.6,77.2,68.9,77.0,72.5,68.0,97,86,66,29.98,29.86,10,2,15,0.47
2014-5-13,87.9,79.3,72.4,76.0,73.0,70.0,95,82,58,29.96,29.87,12,3,16,0.09
2014-5-14,87.7,79.7,74.7,75.0,73.2,70.0,92,81,55,29.98,29.89,11,3,15,0.05
2014-5-15,86.0,79.3,71.9,77.0,73.1,70.0,92,81,67,30.00,29.91,9,3,17,0.04
2014-5-16,85.8,79.5,74.6,76.0,73.3,72.0,92,82,64,29.96,29.86,11,3,16,0.12
2014-5-17,85.5,78.7,73.1,76.0,72.2,70.0,95,81,64,29.94,29.83,11,3,13,0.12
2014-5-18,92.7,80.7,70.7,75.0,71.5,68.0,91,75,46,29.94,29.84,7,1,12,0.00
2014-5-19,87.8,78.7,72.2,76.0,73.3,69.0,91,83,68,29.96,29.89,8,2,13,0.09
2014-5-20,89.6,81.1,74.5,76.0,73.6,72.0,94,79,58,29.97,29.89,7,1,13,0.09
2014-5-21,95.7,82.4,73.1,76.0,72.2,70.0,92,74,44,29.99,29.91,5,1,9,0.00
2014-5-22,89.3,81.1,73.3,76.0,71.9,70.0,90,75,57,30.02,29.93,11,2,18,0.00
2014-5-23,87.8,80.3,72.7,75.0,71.6,69.0,91,75,57,30.04,29.95,11,3,15,0.00
2014-5-24,92.5,82.1,75.3,74.0,72.1,69.0,86,73,47,30.04,29.93,11,3,13,0.00
2014-5-25,86.3,79.8,73.7,75.0,72.7,70.0,91,79,62,30.02,29.92,8,2,17,0.00
2014-5-26,86.1,79.7,72.9,76.0,73.0,70.0,91,80,64,30.04,29.96,12,3,15,0.00
2014-5-27,86.6,78.1,72.7,76.0,72.6,69.0,93,83,66,30.02,29.96,11,2,17,0.26
2014-5-28,86.1,79.3,72.6,75.0,72.7,70.0,93,81,67,30.01,29.94,9,2,13,0.00
2014-5-29,86.6,79.6,74.1,76.0,73.8,72.0,93,83,64,29.97,29.90,10,2,15,0.07
2014-5-30,86.0,80.4,73.7,75.0,73.0,71.0,90,79,65,29.98,29.91,9,3,15,0.00
2014-5-31,87.4,80.4,74.8,76.0,72.6,67.0,90,78,51,29.98,29.91,15,2,16,0.01
2014-6-1,95.9,82.7,72.3,76.0,72.9,69.0,91,74,47,29.95,29.87,8,1,12,0.00
2014-6-2,95.8,83.9,73.7,75.0,72.9,70.0,89,71,50,29.93,29.84,8,1,13,0.00
2014-6-3,80.2,79.8,79.6,73.0,73.0,73.0,79,79,78,29.90,29.89,0,0,2,0.00
2014-6-4,81.8,80.7,79.3,74.0,73.4,72.0,80,78,76,29.92,29.89,4,2,8,0.00
2014-6-5,88.0,81.3,76.4,76.0,73.8,71.0,89,78,61,29.95,29.87,11,3,13,0.04
2014-6-6,89.4,81.7,76.7,76.0,73.7,71.0,87,77,57,29.96,29.88,10,3,16,0.00
2014-6-7,86.6,80.6,75.9,76.0,73.7,72.0,92,80,64,29.96,29.87,13,3,16,0.12
2014-6-8,94.5,79.7,73.2,77.0,73.7,70.0,93,83,47,29.97,29.89,10,1,13,0.11
2014-6-9,93.3,82.8,74.3,76.0,73.7,71.0,93,76,49,30.02,29.91,8,2,12,0.00
2014-6-10,90.0,82.5,75.5,77.0,74.9,72.0,90,78,64,30.02,29.95,10,3,17,0.04
2014-6-11,89.5,82.6,76.3,77.0,74.7,73.0,90,78,60,30.01,29.95,11,4,16,0.00
2014-6-12,87.7,81.8,74.0,76.0,73.7,70.0,89,77,64,30.02,29.95,12,3,16,0.00
2014-6-13,87.1,80.8,74.7,77.0,73.4,71.0,88,79,62,30.01,29.95,10,3,17,0.01
2014-6-14,88.0,81.6,73.7,77.0,74.2,71.0,90,79,63,30.02,29.93,15,4,16,0.02
2014-6-15,90.3,84.0,78.4,78.0,75.7,73.0,89,76,60,30.01,29.93,15,4,17,0.00
2014-6-16,89.5,83.3,76.9,77.0,74.8,72.0,87,76,57,30.02,29.95,13,3,15,0.00
2014-6-17,87.6,81.8,74.3,77.0,73.9,70.0,88,77,67,30.02,29.96,12,3,15,0.02
2014-6-18,87.3,80.7,74.1,76.0,73.9,69.0,92,80,58,30.03,29.95,7,2,13,0.01
2014-6-19,89.5,82.1,74.0,76.0,73.7,71.0,91,76,59,30.03,29.96,13,4,16,0.00
2014-6-20,92.3,83.6,76.5,79.0,76.0,73.0,89,79,59,30.01,29.95,9,2,12,0.00
2014-6-21,92.1,84.3,78.7,79.0,76.8,75.0,90,78,63,30.00,29.91,9,2,12,0.00
2014-6-22,91.2,83.9,77.6,77.0,74.4,70.0,90,74,51,30.00,29.93,13,3,17,0.00
2014-6-23,89.7,83.2,76.2,77.0,74.5,72.0,87,76,63,30.05,29.95,10,2,15,0.00
2014-6-24,90.4,82.5,75.1,78.0,74.0,71.0,89,76,58,30.07,29.99,7,2,13,0.01
2014-6-25,88.3,82.0,73.5,78.0,73.9,70.0,90,77,64,30.05,29.98,12,3,16,0.01
2014-6-26,90.9,83.7,76.3,78.0,76.5,74.0,93,79,61,30.03,29.93,12,3,15,0.05
2014-6-27,90.3,83.6,77.2,77.0,75.2,72.0,87,76,57,30.04,29.95,12,3,15,0.00
2014-6-28,89.2,83.2,76.1,76.0,74.8,72.0,89,76,61,30.07,29.99,12,4,16,0.00
2014-6-29,89.0,82.3,74.4,78.0,75.0,70.0,87,79,66,30.07,29.98,17,3,18,0.00
2014-6-30,88.9,81.5,76.7,78.0,75.6,73.0,89,82,69,30.01,29.93,11,1,15,0.08
2014-7-1,91.2,83.1,73.9,78.0,73.2,71.0,91,73,53,30.02,29.93,13,3,18,0.00
2014-7-2,90.2,82.9,75.5,76.0,73.8,69.0,87,75,50,30.03,29.96,12,3,15,0.00
2014-7-3,89.7,82.3,75.6,77.0,73.6,69.0,89,76,52,30.07,29.98,19,3,21,0.05
2014-7-4,88.6,79.5,78.1,77.0,74.1,73.0,85,83,68,30.07,30.03,10,1,13,0.00
2014-7-5,87.3,80.3,76.2,78.0,75.0,72.0,95,84,69,30.02,29.96,12,2,17,0.76
2014-7-6,90.2,82.3,75.2,78.0,75.2,72.0,97,80,58,30.02,29.94,13,3,17,0.22
2014-7-7,90.9,84.7,78.7,77.0,74.3,70.0,86,72,52,30.09,30.00,12,4,16,0.00
2014-7-8,88.3,83.4,76.4,76.0,74.5,72.0,87,75,63,30.09,30.02,12,4,16,3.14
2014-7-9,88.0,80.4,76.3,76.3,74.1,71.8,92,81,63,30.06,29.98,13,2,19,0.17
2014-7-10,90.4,82.8,75.6,77.0,73.5,65.0,90,75,43,30.04,29.97,10,3,17,0.00
2014-7-11,87.9,81.8,74.2,78.0,75.4,72.0,95,81,67,30.04,29.98,11,3,15,0.38
2014-7-12,88.5,82.7,76.0,77.0,75.2,72.0,89,78,66,30.03,29.97,11,3,15,0.00
2014-7-13,88.4,81.4,74.8,78.0,74.5,72.0,91,80,63,30.02,29.94,11,1,13,0.28
2014-7-14,91.0,81.8,73.7,76.0,73.0,71.0,90,76,53,30.01,29.94,15,1,15,0.00
2014-7-15,92.6,82.4,75.1,78.0,74.2,71.0,88,77,58,30.02,29.94,9,1,12,0.01
2014-7-16,93.2,83.7,75.9,77.0,74.4,72.0,90,75,53,30.05,29.98,11,2,12,0.67
2014-7-17,89.7,81.3,75.2,78.6,74.0,71.4,89,79,58,30.06,29.98,12,2,18,0.07
2014-7-18,89.7,82.2,74.7,76.0,74.0,72.0,93,77,60,30.07,29.98,11,2,15,0.01
2014-7-19,89.3,82.2,75.4,78.0,75.1,72.0,93,79,63,30.05,29.96,11,3,16,0.12
2014-7-20,92.7,84.3,76.5,77.0,74.9,72.0,88,74,53,30.04,29.95,12,3,15,0.00
2014-7-21,90.5,83.2,76.0,76.0,73.6,70.0,88,74,57,30.03,29.96,10,3,16,0.00
2014-7-22,87.5,81.7,73.8,77.0,74.7,71.0,91,79,67,30.04,29.96,11,3,16,0.04
2014-7-23,89.4,84.1,78.4,78.0,76.0,74.0,87,77,62,30.04,29.95,13,4,19,0.00
2014-7-24,88.5,83.6,79.4,77.6,76.0,73.0,90,78,61,30.03,29.94,15,5,21,0.19
2014-7-25,90.0,83.7,78.7,79.0,76.3,73.8,86,79,61,30.02,29.94,11,4,17,0.00
2014-7-26,90.2,84.1,80.7,78.0,76.2,72.0,84,77,56,30.04,29.95,14,4,17,0.00
2014-7-27,90.8,84.6,79.2,78.0,76.5,75.0,86,77,62,30.06,29.97,13,4,15,0.00
2014-7-28,89.3,83.4,77.3,77.0,74.4,71.0,87,75,60,30.05,29.95,11,3,16,0.00
2014-7-29,90.2,81.7,76.0,78.0,73.5,71.0,87,77,56,30.01,29.92,11,1,13,0.55
2014-7-30,91.4,82.2,73.5,75.0,72.9,70.0,91,75,51,30.00,29.90,13,2,16,0.00
2014-7-31,95.2,82.9,74.2,77.0,74.2,71.0,91,76,51,29.97,29.89,8,1,12,0.00
2014-8-1,91.4,82.3,75.1,77.0,74.4,68.0,92,78,51,29.96,29.88,10,3,14,0.00
2014-8-2,80.8,78.0,75.2,76.0,74.7,73.0,95,89,83,30.00,29.86,10,2,23,1.09
2014-8-3,90.1,82.4,74.1,77.0,74.1,68.0,97,77,50,30.03,29.95,14,3,16,0.01
2014-8-4,87.9,82.3,78.6,79.0,76.4,74.0,92,82,68,30.03,29.94,13,3,17,0.17
2014-8-5,88.8,82.3,77.5,80.0,77.6,76.0,96,86,71,30.01,29.93,11,3,14,0.58
2014-8-6,91.6,83.7,76.3,79.0,76.1,75.0,95,79,61,30.00,29.91,11,3,15,0.12
2014-8-7,91.3,84.1,78.3,77.0,74.7,70.0,88,74,51,30.01,29.92,12,3,15,0.00
2014-8-8,87.2,81.6,77.4,79.0,75.5,73.0,95,82,70,30.03,29.96,11,2,17,0.55
2014-8-9,91.0,83.3,76.2,78.0,74.4,70.0,93,76,53,30.02,29.93,12,3,16,0.01
2014-8-10,89.2,82.7,75.1,77.0,74.1,71.0,93,76,62,30.00,29.92,10,3,16,0.46
2014-8-11,88.9,81.8,76.7,80.0,77.0,75.0,95,85,67,30.00,29.91,14,3,17,0.32
2014-8-12,87.2,80.8,76.4,79.0,76.7,75.0,95,88,71,30.01,29.93,5,1,12,0.07
2014-8-13,90.5,83.6,76.3,78.0,76.1,71.0,93,78,52,30.03,29.95,14,3,14,0.00
2014-8-14,88.9,83.9,79.2,77.0,75.7,75.0,87,77,66,30.01,29.94,11,4,16,0.00
2014-8-15,88.8,83.7,77.9,77.0,75.3,72.0,88,76,61,30.02,29.93,11,3,13,0.00
2014-8-16,83.6,80.6,76.9,79.0,77.3,75.0,96,89,80,30.04,29.95,8,2,14,0.62
2014-8-17,87.5,83.0,78.8,81.0,78.1,76.0,93,85,72,30.01,29.94,8,2,14,0.07
2014-8-18,89.6,83.5,77.9,79.0,76.9,76.0,92,81,66,29.99,29.89,11,3,18,0.00
2014-8-19,89.3,83.4,76.6,79.0,77.0,75.0,94,81,69,29.96,29.90,11,3,15,0.17
2014-8-20,88.1,81.0,74.7,80.0,77.3,73.0,97,89,74,30.00,29.91,10,2,15,0.38
2014-8-21,88.0,82.2,78.1,80.0,77.7,76.0,95,86,72,29.97,29.85,14,3,18,0.71
2014-8-22,80.5,77.6,75.5,78.0,75.9,74.0,97,94,88,29.85,29.76,9,0,10,1.70
2014-8-23,84.8,76.7,74.1,78.0,75.0,73.0,99,94,79,29.88,29.79,5,1,11,4.16
2014-8-24,94.1,82.2,73.3,80.0,75.4,72.0,99,82,58,29.87,29.77,9,1,13,0.26
2014-8-25,92.8,83.3,74.9,79.0,74.8,71.0,88,76,58,29.87,29.77,12,2,17,0.02
2014-8-26,94.5,86.2,78.3,78.0,75.3,70.0,88,71,45,29.98,29.84,8,2,14,0.00
2014-8-27,88.8,84.2,79.3,80.0,77.3,75.0,91,80,67,29.99,29.91,17,3,17,0.16
2014-8-28,90.2,84.0,79.9,78.0,76.1,73.0,91,78,59,29.98,29.87,16,3,18,0.02
2014-8-29,85.9,79.8,75.6,79.0,75.4,74.0,94,86,74,30.01,29.92,6,0,10,0.60
2014-8-30,87.0,80.5,74.0,79.0,75.4,72.0,95,85,71,30.01,29.95,8,2,16,0.15
2014-8-31,88.8,80.9,73.9,77.0,75.1,72.0,93,83,66,30.01,29.94,14,2,17,0.25
2014-9-1,89.4,80.0,74.0,77.0,74.2,71.0,92,83,61,29.99,29.93,10,2,12,0.01
2014-9-4,86.2,80.3,78.1,80.0,77.0,76.0,93,89,75,29.99,29.90,7,1,12,0.66
2014-9-5,88.2,81.2,75.1,80.0,76.4,73.0,95,85,71,29.98,29.90,8,2,15,0.12
2014-9-6,89.8,82.8,75.8,79.0,75.8,73.0,92,79,60,29.95,29.88,10,2,14,0.00
2014-9-7,85.9,78.4,75.1,78.0,75.0,73.0,95,89,75,29.98,29.88,8,1,12,0.38
2014-9-8,90.6,80.8,75.0,78.0,75.9,74.0,97,86,67,30.02,29.92,9,2,13,0.00
2014-9-9,90.3,82.4,73.7,80.0,75.9,72.0,94,81,66,29.99,29.90,8,1,14,0.00
2014-9-10,90.3,81.5,74.4,78.0,74.2,72.0,91,79,60,29.95,29.86,11,1,15,0.00
2014-9-11,90.4,82.0,74.4,78.0,74.3,70.0,91,78,52,29.94,29.85,9,2,12,0.12
2014-9-12,90.7,83.7,77.2,79.0,75.4,70.0,90,77,53,29.96,29.88,8,2,14,0.00
2014-9-13,88.7,83.3,77.0,79.0,76.7,74.0,91,81,70,29.98,29.90,12,3,15,0.02
2014-9-14,87.8,81.6,75.2,80.0,76.9,74.0,97,86,71,29.98,29.91,12,2,13,1.05
2014-9-15,89.0,81.3,75.2,78.0,75.7,74.0,95,83,65,29.98,29.89,6,1,13,0.02
2014-9-16,88.6,81.6,73.2,78.0,74.9,71.0,93,81,67,29.96,29.86,11,2,11,0.00
2014-9-17,89.8,81.8,74.2,78.0,74.7,71.0,90,79,59,29.94,29.85,9,2,11,0.00
2014-9-18,89.4,82.1,74.6,79.0,76.8,73.0,94,84,70,29.93,29.83,7,1,11,0.23
2014-9-19,91.1,83.0,73.5,80.0,75.6,72.0,96,79,61,29.93,29.84,10,2,15,1.29
2014-9-20,92.8,80.4,75.5,79.0,75.2,73.0,92,85,63,29.98,29.86,7,1,15,0.54
2014-9-21,89.0,82.2,74.6,79.0,76.2,73.0,94,82,65,30.00,29.89,9,2,15,0.01
2014-9-22,88.7,81.7,77.0,79.0,77.2,75.0,95,86,71,29.96,29.81,9,2,12,0.43
2014-9-23,91.9,82.3,75.8,80.0,76.5,74.0,95,83,63,29.93,29.83,9,1,12,0.00
2014-9-24,89.6,81.5,75.7,79.0,75.9,74.0,93,83,65,29.96,29.88,10,2,14,0.06
2014-9-25,87.8,78.6,74.7,78.0,75.5,73.0,96,90,71,29.93,29.83,9,1,12,0.71
2014-9-26,86.0,78.7,72.9,78.0,74.7,71.0,95,88,70,29.86,29.77,7,1,8,0.32
2014-9-27,92.9,80.3,74.3,79.0,75.2,73.0,97,85,62,29.90,29.81,4,0,8,0.09
2014-9-28,94.7,83.7,74.7,79.0,75.6,73.0,95,78,57,29.93,29.83,5,1,11,0.00
2014-9-29,96.9,85.5,76.4,76.0,73.2,69.0,89,68,44,29.93,29.85,6,1,13,0.00
2014-9-30,96.9,84.8,74.4,78.0,74.5,70.0,90,73,52,29.95,29.86,7,1,11,0.00
2014-10-1,91.5,83.1,75.7,78.0,75.7,73.0,92,79,63,29.98,29.89,8,1,13,0.00
2014-10-2,94.8,83.7,75.4,79.0,76.2,73.0,92,79,56,29.98,29.89,8,2,14,0.00
2014-10-3,91.3,82.7,75.9,78.0,75.4,72.0,91,79,59,29.99,29.87,8,2,13,0.00
2014-10-4,93.3,82.8,73.2,78.0,74.4,70.0,91,77,55,29.94,29.81,8,1,13,0.00
2014-10-5,89.5,81.8,73.2,76.0,74.1,70.0,92,78,63,29.95,29.83,9,2,12,0.00
2014-10-6,88.3,81.9,73.6,76.0,74.1,71.0,90,77,66,29.97,29.88,11,2,14,0.00
2014-10-7,82.0,80.8,78.8,76.0,74.6,74.0,90,81,78,29.95,29.88,1,0,4,0.06
2014-10-8,90.0,82.1,75.4,79.0,75.9,74.0,96,82,65,29.88,29.77,7,1,10,0.07
2014-10-9,91.1,82.3,74.9,78.0,75.6,73.0,93,80,65,29.81,29.72,5,1,8,0.00
2014-10-10,94.5,80.1,76.5,78.0,74.9,73.0,94,85,50,29.83,29.73,7,1,10,0.42
2014-10-11,95.5,83.6,73.8,78.0,75.5,72.0,96,78,53,29.93,29.81,7,1,13,0.00
2014-10-12,89.9,82.5,74.9,78.0,76.0,73.0,93,81,65,29.94,29.85,11,2,14,0.02
2014-10-13,87.9,80.4,74.8,78.0,75.6,74.0,96,86,67,29.91,29.81,11,2,15,0.49
2014-10-14,90.4,78.7,74.3,78.0,75.4,73.0,97,90,61,29.89,29.78,6,1,8,0.41
2014-10-15,97.3,84.1,74.5,78.0,74.7,73.0,96,76,47,29.93,29.83,6,1,10,0.01
2014-10-16,95.9,83.7,75.6,79.0,76.4,74.0,94,79,51,29.92,29.80,9,1,11,0.00
2014-10-17,94.6,82.8,74.6,78.0,75.5,72.0,93,80,52,29.91,29.81,8,1,10,0.00
2014-10-18,89.0,81.9,75.5,77.0,75.3,73.0,92,81,66,29.91,29.82,9,2,10,0.00
2014-10-19,89.3,81.5,74.9,78.0,75.1,73.0,92,81,66,29.92,29.83,7,1,10,0.00
2014-10-20,88.5,81.1,74.4,77.0,74.7,72.0,93,81,65,29.94,29.84,11,2,12,0.00
2014-10-21,89.3,82.1,74.4,77.0,74.6,71.0,91,78,62,29.92,29.82,10,2,14,0.00
2014-10-22,90.3,81.8,73.9,77.0,73.5,70.0,88,76,57,29.93,29.82,9,2,14,0.00
2014-10-23,94.6,83.6,74.7,78.0,74.6,71.0,89,75,53,29.90,29.80,6,1,11,0.00
2014-10-24,94.5,84.4,76.2,78.0,75.5,74.0,92,76,54,29.90,29.80,7,1,14,0.00
2014-10-25,95.7,84.1,75.2,78.0,74.9,73.0,91,75,50,29.89,29.77,7,1,11,0.03
2014-10-26,97.5,84.9,75.3,77.0,74.9,73.0,93,74,48,29.87,29.75,6,1,9,0.00
2014-10-27,90.4,81.8,75.6,78.0,75.4,73.0,91,81,62,29.93,29.82,7,1,12,0.00
2014-10-28,89.1,82.1,74.2,78.0,75.7,72.0,95,81,65,29.95,29.84,11,2,13,0.04
2014-10-29,88.1,81.4,75.8,79.0,76.5,74.0,96,86,68,29.90,29.78,8,2,11,0.14
2014-10-30,90.4,81.2,76.1,79.0,77.0,75.0,97,88,68,29.80,29.71,4,0,7,0.10
2014-10-31,90.2,81.1,75.6,79.0,76.2,74.0,96,85,66,29.88,29.75,7,1,11,0.06
2014-11-1,97.7,84.2,74.8,78.0,75.8,73.0,96,77,52,29.95,29.84,3,0,9,0.00
2014-11-2,88.8,81.1,76.3,79.0,76.6,74.0,95,86,71,29.98,29.88,7,1,10,0.27
2014-11-3,90.0,80.0,72.6,78.0,75.1,71.0,97,86,64,29.93,29.83,7,2,17,0.70
2014-11-4,76.9,76.1,75.8,75.0,74.7,74.0,97,96,93,29.91,29.80,1,0,7,0.78
2014-11-15,84.5,78.2,75.5,77.0,75.2,74.0,95,90,77,30.00,29.91,4,1,8,0.35
2014-11-16,86.9,80.6,74.7,79.0,75.4,73.0,97,84,69,30.04,29.94,9,2,16,0.07
2014-11-17,86.3,80.1,74.4,78.0,75.9,72.0,96,87,73,30.02,29.92,11,3,16,0.52
2014-11-18,86.5,80.0,72.3,77.0,74.5,71.0,95,83,70,30.00,29.90,12,2,15,0.10
2014-11-19,86.9,79.7,74.2,78.0,75.1,73.0,95,86,70,29.98,29.89,10,2,15,0.16
2014-11-20,87.2,79.7,72.0,77.0,73.2,70.0,95,81,63,29.98,29.87,11,2,15,0.00
2014-11-21,86.0,78.2,72.2,75.0,73.0,70.0,94,84,67,29.98,29.89,10,2,15,0.27
2014-11-22,82.3,75.5,72.7,78.0,74.0,72.0,98,95,79,29.99,29.90,11,1,21,1.55
2014-11-23,87.5,79.9,73.1,77.0,73.8,72.0,98,82,65,30.00,29.91,8,2,14,0.02
2014-11-24,84.9,78.9,74.5,77.0,74.9,73.0,96,88,72,30.02,29.92,12,3,16,0.31
2014-11-25,83.1,78.0,75.4,78.0,74.5,71.0,95,89,78,30.02,29.94,12,2,16,0.64
2014-11-26,85.4,77.7,72.3,77.0,73.6,70.0,96,87,72,30.00,29.90,14,2,15,0.72
2014-11-27,85.0,77.4,70.2,73.0,70.6,68.0,95,80,58,29.96,29.86,8,1,10,0.01
2014-11-28,84.9,76.4,68.8,74.0,70.3,67.0,94,82,67,29.94,29.84,6,1,11,0.00
2014-11-29,84.1,77.6,71.5,76.0,73.2,68.0,95,86,74,29.95,29.86,7,1,10,0.02
2014-11-30,84.3,78.2,72.5,77.0,73.9,71.0,95,87,73,30.01,29.91,7,1,10,0.26
2014-12-1,83.7,77.9,72.8,76.0,73.6,71.0,97,87,72,30.00,29.89,8,2,12,0.17
2014-12-2,84.1,77.6,72.6,75.0,73.1,71.0,97,86,68,29.92,29.82,9,2,12,0.06
2014-12-3,84.5,77.0,70.4,76.0,73.2,69.0,97,88,72,29.88,29.77,11,2,14,1.19
2014-12-4,83.9,76.9,71.4,77.0,73.8,71.0,98,90,74,29.89,29.80,8,1,10,0.26
2014-12-5,85.3,77.9,72.2,76.0,72.8,71.0,98,85,68,29.91,29.83,8,1,10,0.01
2014-12-6,84.2,77.2,71.8,75.0,71.5,69.0,94,83,67,29.87,29.78,8,1,9,0.01
2014-12-7,85.1,76.4,68.9,72.0,69.1,67.0,95,79,56,29.88,29.80,7,1,7,0.02
2014-12-8,85.7,75.2,65.9,71.0,68.1,65.0,95,80,55,29.93,29.85,6,1,10,0.00
2014-12-9,84.0,75.4,65.7,72.0,68.4,64.0,94,80,60,29.94,29.82,7,1,10,0.00
2014-12-10,88.1,76.6,68.7,74.0,70.6,67.0,93,82,61,29.94,29.85,6,1,9,0.00
2014-12-11,85.4,77.4,68.5,74.0,71.2,67.0,94,81,65,30.01,29.90,10,2,12,0.00
2014-12-12,85.7,78.0,70.4,77.0,72.2,68.0,94,83,63,30.01,29.91,7,2,13,0.01
2014-12-13,92.6,78.9,70.2,74.0,70.4,68.0,94,77,51,29.94,29.79,4,0,7,0.00
2014-12-14,91.4,78.5,71.0,75.0,72.1,69.0,94,82,50,29.86,29.77,6,1,8,0.00
2014-12-15,82.7,76.5,71.4,75.0,72.9,71.0,98,88,75,29.95,29.81,5,1,9,1.95
2014-12-16,76.3,73.9,71.0,75.0,72.7,70.0,98,96,94,30.01,29.89,6,0,12,4.78
2014-12-17,83.4,76.8,71.4,75.0,71.3,69.0,98,84,67,30.02,29.92,7,2,10,0.01
2014-12-18,81.1,75.0,69.0,74.0,69.8,67.0,95,84,69,30.00,29.90,10,1,13,0.06
2014-12-19,83.9,76.4,68.6,73.0,70.0,67.0,96,81,60,29.96,29.87,9,2,13,0.00
2014-12-20,84.4,76.4,68.2,73.0,70.4,67.0,95,82,65,30.00,29.90,10,2,13,0.00
2014-12-21,83.6,76.6,70.7,72.0,68.9,67.0,92,78,59,30.05,29.94,11,2,13,0.00
2014-12-22,86.0,76.7,68.8,75.0,70.8,66.0,94,82,64,30.02,29.91,11,2,12,0.02
2014-12-23,84.0,76.3,68.6,77.0,72.2,67.0,96,87,72,30.00,29.91,9,2,14,0.06
2014-12-24,83.3,76.4,69.4,72.0,69.9,67.0,93,81,64,30.02,29.92,10,2,14,0.11
2014-12-25,82.2,76.1,71.1,75.0,72.0,70.0,97,87,72,30.05,29.96,12,2,15,0.30
2014-12-26,83.1,75.8,69.6,75.0,71.1,69.0,97,86,68,30.04,29.94,11,2,14,0.06
2014-12-27,82.7,75.2,67.5,72.0,69.4,66.0,96,83,64,30.06,29.97,8,2,11,0.02
2014-12-28,82.4,75.7,68.9,74.0,69.9,68.0,97,83,62,30.03,29.94,9,2,13,0.08
2014-12-29,85.9,76.4,68.4,73.0,70.2,67.0,96,82,60,30.06,29.96,8,2,11,0.00
2014-12-30,84.0,77.8,71.5,74.0,71.6,70.0,96,82,66,30.11,29.99,10,2,14,0.01
2014-12-31,86.3,77.3,70.4,75.0,71.3,68.0,93,82,62,30.07,29.98,7,2,12,0.00
2015-1-1,85.4,78.1,71.2,75.0,72.0,69.0,94,82,62,30.10,30.00,8,2,13,0.01
2015-1-2,83.0,76.9,70.7,76.0,72.3,69.0,94,86,73,30.15,30.05,14,3,17,0.22